Time;durP1;ratioP1;P1;durP2;ratioP2;P2;SDS_P1;SDS_P2;PMS_P1;PMS_P2;Temp;Humidity;BMP_temperature;BMP_pressure;BME280_temperature;BME280_humidity;BME280_pressure;Samples;Min_cycle;Max_cycle;Signal;HPM_P1;HPM_P2
2023/12/23 00:00:12;;;;;;;12.05;1.08;;;;;;;6.93;100.00;100712.72;4991000;28;20427;-90
2023/12/23 00:02:37;;;;;;;12.20;1.27;;;;;;;6.87;100.00;100699.50;4996557;28;20081;-90
2023/12/23 00:05:03;;;;;;;15.00;1.88;;;;;;;6.98;100.00;100710.56;5022210;28;20034;-88
2023/12/23 00:07:28;;;;;;;5.20;0.80;;;;;;;6.92;100.00;100719.13;5003510;28;20069;-90
2023/12/23 00:09:54;;;;;;;12.25;0.95;;;;;;;6.91;100.00;100717.38;4987965;28;20030;-90
2023/12/23 00:12:19;;;;;;;12.70;0.95;;;;;;;6.80;100.00;100702.66;4986903;28;20061;-89
2023/12/23 00:14:45;;;;;;;5.50;0.70;;;;;;;6.86;100.00;100704.06;4989632;28;20052;-89
2023/12/23 00:17:10;;;;;;;16.63;1.23;;;;;;;6.82;100.00;100694.34;5018141;28;20399;-89
2023/12/23 00:19:36;;;;;;;12.98;1.50;;;;;;;6.84;100.00;100707.88;4997940;28;20117;-88
2023/12/23 00:22:01;;;;;;;8.82;0.90;;;;;;;6.86;100.00;100705.94;4982990;28;20037;-89
2023/12/23 00:24:29;;;;;;;17.50;1.55;;;;;;;6.85;100.00;100705.03;4998075;28;20098;-89
2023/12/23 00:26:57;;;;;;;15.40;1.15;;;;;;;6.86;100.00;100712.25;4978904;28;20053;-89
2023/12/23 00:29:24;;;;;;;18.73;1.45;;;;;;;6.82;100.00;100702.53;5019061;28;20029;-89
2023/12/23 00:31:49;;;;;;;11.07;1.13;;;;;;;6.78;100.00;100706.44;5018609;28;20036;-88
2023/12/23 00:34:15;;;;;;;14.07;1.25;;;;;;;6.87;100.00;100702.22;4978598;28;20038;-88
2023/12/23 00:36:40;;;;;;;10.32;0.82;;;;;;;6.84;100.00;100697.88;4993473;28;20032;-90
2023/12/23 00:39:06;;;;;;;9.10;0.90;;;;;;;6.76;100.00;100701.09;5011703;28;20030;-89
2023/12/23 00:41:31;;;;;;;6.65;0.70;;;;;;;6.84;100.00;100696.97;4998807;28;20130;-89
2023/12/23 00:43:57;;;;;;;6.20;0.88;;;;;;;6.87;100.00;100703.13;5031332;28;20053;-89
2023/12/23 00:46:22;;;;;;;10.98;1.10;;;;;;;6.88;100.00;100707.56;4998635;28;20026;-89
2023/12/23 00:48:48;;;;;;;12.70;1.05;;;;;;;6.91;100.00;100701.06;5013648;28;20048;-89
2023/12/23 00:51:13;;;;;;;6.07;0.80;;;;;;;6.91;100.00;100692.91;4997836;28;20030;-89
2023/12/23 00:53:39;;;;;;;11.52;1.00;;;;;;;6.87;100.00;100691.34;4998717;28;20040;-89
2023/12/23 00:56:05;;;;;;;12.70;1.60;;;;;;;6.86;100.00;100679.59;4987303;28;20034;-89
2023/12/23 00:58:30;;;;;;;10.43;1.33;;;;;;;6.83;100.00;100674.34;4977119;28;20038;-89
2023/12/23 01:00:56;;;;;;;9.68;1.23;;;;;;;6.88;100.00;100668.59;4985422;28;20037;-89
2023/12/23 01:03:21;;;;;;;20.60;1.60;;;;;;;6.84;100.00;100681.53;4984179;28;20037;-89
2023/12/23 01:05:47;;;;;;;13.68;2.58;;;;;;;6.86;100.00;100668.69;4997666;28;20036;-89
2023/12/23 01:08:12;;;;;;;13.27;1.27;;;;;;;6.89;100.00;100676.66;4980686;28;20128;-89
2023/12/23 01:10:37;;;;;;;7.70;1.45;;;;;;;6.88;100.00;100680.34;4981265;28;20030;-90
2023/12/23 01:13:03;;;;;;;10.90;1.17;;;;;;;6.89;100.00;100678.53;5011779;28;20120;-89
2023/12/23 01:15:28;;;;;;;16.65;1.77;;;;;;;6.88;100.00;100668.59;5013579;28;20065;-89
2023/12/23 01:17:54;;;;;;;13.25;2.08;;;;;;;6.94;100.00;100688.13;4977184;28;20125;-90
2023/12/23 01:20:19;;;;;;;15.07;1.83;;;;;;;6.95;100.00;100669.94;4978698;28;20042;-90
2023/12/23 01:22:45;;;;;;;6.05;1.73;;;;;;;6.95;100.00;100670.81;5000868;28;20026;-90
2023/12/23 01:25:10;;;;;;;11.13;2.15;;;;;;;6.99;100.00;100666.03;4973063;28;20038;-91
2023/12/23 01:27:35;;;;;;;13.23;2.05;;;;;;;7.01;100.00;100660.50;5004367;28;20033;-91
2023/12/23 01:30:01;;;;;;;12.95;3.08;;;;;;;7.06;100.00;100652.88;4989709;28;20057;-91
2023/12/23 01:32:26;;;;;;;19.10;3.10;;;;;;;7.13;100.00;100651.47;4990160;28;20430;-90
2023/12/23 01:34:52;;;;;;;23.02;3.30;;;;;;;7.21;100.00;100646.38;4991317;28;20475;-90
2023/12/23 01:37:17;;;;;;;19.08;3.60;;;;;;;7.21;100.00;100640.94;4995542;28;20497;-91
2023/12/23 01:39:43;;;;;;;10.07;2.60;;;;;;;7.18;100.00;100654.75;5003979;28;20410;-90
2023/12/23 01:42:08;;;;;;;19.45;3.10;;;;;;;7.23;100.00;100649.00;4995944;28;20083;-90
2023/12/23 01:44:34;;;;;;;22.08;3.53;;;;;;;7.22;100.00;100659.03;4987438;28;20029;-91
2023/12/23 01:47:02;;;;;;;15.45;2.97;;;;;;;7.19;100.00;100632.00;4998339;28;20029;-90
2023/12/23 01:49:28;;;;;;;24.02;4.68;;;;;;;7.20;100.00;100627.41;5014984;28;20105;-90
2023/12/23 01:51:55;;;;;;;12.63;3.00;;;;;;;7.26;100.00;100627.00;4975296;28;21432;-90
2023/12/23 01:54:22;;;;;;;20.55;2.85;;;;;;;7.29;100.00;100619.50;5012664;28;20030;-90
2023/12/23 01:56:49;;;;;;;29.05;3.13;;;;;;;7.34;100.00;100632.78;5012997;28;20031;-90
2023/12/23 01:59:15;;;;;;;17.63;3.05;;;;;;;7.42;100.00;100629.53;5009479;28;20038;-90
2023/12/23 02:01:42;;;;;;;13.73;1.80;;;;;;;7.51;100.00;100627.06;5018504;28;20538;-90
2023/12/23 02:04:08;;;;;;;15.55;2.25;;;;;;;7.54;100.00;100621.41;5020206;28;20025;-90
2023/12/23 02:06:33;;;;;;;23.85;3.30;;;;;;;7.62;100.00;100619.97;5011370;28;20261;-89
2023/12/23 02:09:01;;;;;;;26.65;3.17;;;;;;;7.87;100.00;100633.59;4977811;28;20502;-89
2023/12/23 02:11:32;;;;;;;21.00;1.98;;;;;;;7.82;100.00;100614.00;4980470;28;20098;-89
2023/12/23 02:14:15;;;;;;;21.33;2.22;;;;;;;7.96;100.00;100612.97;5012088;28;20030;-89
2023/12/23 02:16:41;;;;;;;20.23;2.00;;;;;;;7.99;100.00;100612.75;5023708;28;20048;-89
2023/12/23 02:19:06;;;;;;;15.48;1.98;;;;;;;8.03;100.00;100606.09;5018618;28;20034;-88
2023/12/23 02:21:32;;;;;;;30.67;2.10;;;;;;;8.12;100.00;100609.13;4993329;28;20041;-88
2023/12/23 02:23:57;;;;;;;21.05;2.53;;;;;;;8.07;100.00;100598.59;4981803;28;20022;-89
2023/12/23 02:26:25;;;;;;;15.70;2.25;;;;;;;8.15;100.00;100593.44;4997460;28;20129;-89
2023/12/23 02:28:52;;;;;;;19.70;2.97;;;;;;;8.16;100.00;100595.16;5015170;28;20022;-88
2023/12/23 02:31:21;;;;;;;11.40;1.90;;;;;;;8.15;100.00;100592.53;5008958;28;20041;-88
2023/12/23 02:33:47;;;;;;;23.85;2.63;;;;;;;8.14;100.00;100599.88;5010677;28;20480;-89
2023/12/23 02:36:13;;;;;;;18.63;2.55;;;;;;;8.18;100.00;100600.50;5016713;28;20030;-89
2023/12/23 02:38:38;;;;;;;18.60;2.75;;;;;;;8.21;100.00;100603.00;4990652;28;20048;-89
2023/12/23 02:41:04;;;;;;;12.75;2.50;;;;;;;8.25;100.00;100594.50;4996071;28;20042;-89
2023/12/23 02:43:30;;;;;;;16.70;2.50;;;;;;;8.26;100.00;100595.34;4992950;28;20463;-85
2023/12/23 02:45:55;;;;;;;19.23;3.08;;;;;;;8.29;100.00;100582.34;5006691;28;20397;-84
2023/12/23 02:48:20;;;;;;;21.20;2.78;;;;;;;8.27;100.00;100578.88;5002787;28;20030;-84
2023/12/23 02:50:46;;;;;;;18.63;2.97;;;;;;;8.25;100.00;100567.22;5029633;28;20033;-85
2023/12/23 02:53:11;;;;;;;18.42;3.03;;;;;;;8.27;100.00;100567.97;5001030;28;20409;-85
2023/12/23 02:55:36;;;;;;;18.63;4.18;;;;;;;8.30;100.00;100558.69;5023280;28;20034;-84
2023/12/23 02:58:02;;;;;;;21.05;3.90;;;;;;;8.35;100.00;100555.63;4988047;28;20107;-85
2023/12/23 03:00:27;;;;;;;21.67;3.85;;;;;;;8.35;100.00;100561.94;5005296;28;20057;-85
2023/12/23 03:02:53;;;;;;;24.27;3.90;;;;;;;8.39;100.00;100562.59;4984521;28;20116;-85
2023/12/23 03:05:18;;;;;;;23.70;4.43;;;;;;;8.36;100.00;100557.34;4998693;28;20442;-85
2023/12/23 03:07:43;;;;;;;16.48;3.38;;;;;;;8.38;100.00;100561.72;4985035;28;20045;-85
2023/12/23 03:10:09;;;;;;;21.25;3.15;;;;;;;8.39;100.00;100557.13;4987172;28;20024;-85
2023/12/23 03:12:35;;;;;;;20.33;3.70;;;;;;;8.43;100.00;100553.25;4998309;28;20026;-85
2023/12/23 03:15:00;;;;;;;16.20;2.90;;;;;;;8.42;100.00;100546.00;4987503;28;20125;-84
2023/12/23 03:17:27;;;;;;;24.10;2.72;;;;;;;8.45;100.00;100537.63;5005693;28;20065;-85
2023/12/23 03:19:55;;;;;;;17.73;2.97;;;;;;;8.46;100.00;100544.78;5008941;28;20030;-85
2023/12/23 03:22:20;;;;;;;15.43;2.35;;;;;;;8.51;100.00;100544.44;5003050;28;20036;-84
2023/12/23 03:24:46;;;;;;;21.38;2.88;;;;;;;8.49;100.00;100535.53;5000543;28;20472;-85
2023/12/23 03:27:11;;;;;;;18.50;2.15;;;;;;;8.51;100.00;100541.72;5014661;28;20034;-84
2023/12/23 03:29:36;;;;;;;13.15;2.20;;;;;;;8.52;100.00;100538.88;4999068;28;20116;-84
2023/12/23 03:32:02;;;;;;;31.20;2.85;;;;;;;8.56;100.00;100540.41;4998785;28;20510;-85
2023/12/23 03:34:27;;;;;;;19.88;2.35;;;;;;;8.55;100.00;100541.38;5004496;28;20044;-84
2023/12/23 03:36:53;;;;;;;14.45;2.13;;;;;;;8.54;100.00;100541.50;5006668;28;20080;-85
2023/12/23 03:39:18;;;;;;;12.13;1.60;;;;;;;8.55;100.00;100549.56;4985841;28;20379;-84
2023/12/23 03:41:44;;;;;;;17.92;2.15;;;;;;;8.65;100.00;100541.56;4999379;28;20042;-84
2023/12/23 03:44:09;;;;;;;15.88;2.10;;;;;;;8.57;100.00;100549.44;4990273;28;20026;-84
2023/12/23 03:46:34;;;;;;;11.18;1.88;;;;;;;8.61;100.00;100532.72;4983841;28;20045;-84
2023/12/23 03:49:15;;;;;;;18.98;2.50;;;;;;;8.57;100.00;100519.44;5063721;28;20410;-83
2023/12/23 03:51:41;;;;;;;15.15;2.50;;;;;;;8.68;100.00;100521.34;5040760;28;20045;-83
2023/12/23 03:54:06;;;;;;;25.42;2.78;;;;;;;8.59;100.00;100510.16;5033235;28;20045;-84
2023/12/23 03:56:31;;;;;;;17.20;2.42;;;;;;;8.64;100.00;100515.25;5045596;28;20040;-84
2023/12/23 03:58:58;;;;;;;16.77;2.20;;;;;;;8.61;100.00;100530.00;5057154;28;20029;-85
2023/12/23 04:01:24;;;;;;;15.30;2.40;;;;;;;8.62;100.00;100526.31;5054594;28;20020;-84
2023/12/23 04:03:50;;;;;;;18.98;2.40;;;;;;;8.71;100.00;100530.19;5055448;28;20084;-84
2023/12/23 04:06:15;;;;;;;9.15;1.92;;;;;;;8.68;100.00;100511.31;5054639;28;20032;-84
2023/12/23 04:08:41;;;;;;;15.77;2.20;;;;;;;8.71;100.00;100507.47;5034355;28;20052;-83
2023/12/23 04:11:07;;;;;;;12.30;1.70;;;;;;;8.75;100.00;100509.81;5046818;28;20041;-83
2023/12/23 04:13:32;;;;;;;11.65;2.17;;;;;;;8.70;100.00;100509.31;5049238;28;20124;-83
2023/12/23 04:15:58;;;;;;;13.10;2.20;;;;;;;8.74;100.00;100501.75;5046484;28;20025;-83
2023/12/23 04:18:23;;;;;;;10.18;2.45;;;;;;;8.71;100.00;100507.47;5014153;28;20026;-83
2023/12/23 04:20:49;;;;;;;10.45;2.95;;;;;;;8.78;100.00;100506.88;5060311;28;20124;-84
2023/12/23 04:23:14;;;;;;;11.30;1.98;;;;;;;8.76;100.00;100500.66;5015303;28;20030;-83
2023/12/23 04:25:41;;;;;;;14.25;1.90;;;;;;;8.78;100.00;100497.81;5042057;28;20025;-84
2023/12/23 04:28:06;;;;;;;11.23;2.17;;;;;;;8.76;100.00;100487.00;5012682;28;20038;-84
2023/12/23 04:30:32;;;;;;;10.95;1.98;;;;;;;8.76;100.00;100499.81;5055111;28;20048;-84
2023/12/23 04:32:57;;;;;;;14.50;2.45;;;;;;;8.73;100.00;100484.53;5024416;28;20035;-84
2023/12/23 04:35:23;;;;;;;15.85;3.47;;;;;;;8.75;100.00;100463.44;5015403;28;20091;-84
2023/12/23 04:37:48;;;;;;;12.80;2.40;;;;;;;8.79;100.00;100469.53;5049471;28;20036;-83
2023/12/23 04:40:15;;;;;;;15.50;2.20;;;;;;;8.84;100.00;100475.50;5017143;28;20028;-83
2023/12/23 04:42:41;;;;;;;16.75;2.33;;;;;;;8.83;100.00;100465.56;5008849;28;20048;-84
2023/12/23 04:45:07;;;;;;;17.50;2.03;;;;;;;8.82;100.00;100466.53;5056520;28;20497;-84
2023/12/23 04:47:32;;;;;;;7.18;1.35;;;;;;;8.75;100.00;100468.03;5035788;28;20073;-84
2023/12/23 04:49:57;;;;;;;12.68;1.85;;;;;;;8.71;100.00;100458.34;5031642;28;20026;-84
2023/12/23 04:52:23;;;;;;;14.75;2.28;;;;;;;8.62;100.00;100444.44;5028703;28;21901;-84
2023/12/23 04:54:48;;;;;;;12.00;1.83;;;;;;;8.72;100.00;100449.16;5029159;28;20048;-84
2023/12/23 04:57:13;;;;;;;11.82;1.80;;;;;;;8.65;100.00;100443.31;5015710;28;20033;-83
2023/12/23 04:59:39;;;;;;;7.93;1.58;;;;;;;8.68;100.00;100442.22;5005867;28;20483;-84
2023/12/23 05:02:04;;;;;;;10.55;2.13;;;;;;;8.74;100.00;100453.50;4998842;28;20044;-85
2023/12/23 05:04:30;;;;;;;11.68;1.95;;;;;;;8.73;100.00;100450.91;4998318;28;20484;-86
2023/12/23 05:06:57;;;;;;;10.85;1.40;;;;;;;8.71;100.00;100452.88;5015229;28;20040;-86
2023/12/23 05:09:23;;;;;;;12.05;1.88;;;;;;;8.68;100.00;100454.00;5033430;28;20104;-86
2023/12/23 05:11:48;;;;;;;9.07;1.70;;;;;;;8.70;100.00;100460.19;5034610;28;20489;-87
2023/12/23 05:14:13;;;;;;;11.13;2.22;;;;;;;8.68;100.00;100455.84;5013936;28;20516;-87
2023/12/23 05:16:39;;;;;;;13.43;1.90;;;;;;;8.65;100.00;100443.31;5013066;28;20031;-86
2023/12/23 05:19:04;;;;;;;10.23;1.40;;;;;;;8.69;100.00;100454.84;5016061;28;20033;-87
2023/12/23 05:21:30;;;;;;;21.20;2.60;;;;;;;8.69;100.00;100455.75;5023301;28;20419;-86
2023/12/23 05:23:55;;;;;;;19.67;1.52;;;;;;;8.68;100.00;100439.47;5023208;28;20488;-87
2023/12/23 05:26:20;;;;;;;3.58;1.17;;;;;;;8.63;100.00;100451.59;5005270;28;20169;-87
2023/12/23 05:28:46;;;;;;;16.35;2.13;;;;;;;8.73;100.00;100434.53;5024093;28;20040;-88
2023/12/23 05:31:11;;;;;;;7.97;1.83;;;;;;;8.67;100.00;100433.13;5005430;28;20393;-86
2023/12/23 05:33:37;;;;;;;10.27;1.65;;;;;;;8.69;100.00;100433.91;5003401;28;20033;-86
2023/12/23 05:36:02;;;;;;;10.52;2.05;;;;;;;8.76;100.00;100426.09;5017272;28;21765;-87
2023/12/23 05:38:28;;;;;;;19.40;1.60;;;;;;;8.81;100.00;100434.78;5009981;28;20049;-84
2023/12/23 05:40:53;;;;;;;9.48;1.83;;;;;;;8.79;100.00;100436.78;5025107;28;20034;-84
2023/12/23 05:43:18;;;;;;;10.80;1.90;;;;;;;8.79;100.00;100424.00;5037117;28;20075;-85
2023/12/23 05:45:44;;;;;;;8.95;1.75;;;;;;;8.77;100.00;100415.06;5018962;28;20387;-85
2023/12/23 05:48:09;;;;;;;15.07;1.65;;;;;;;8.77;100.00;100415.06;5004385;28;20077;-83
2023/12/23 05:50:34;;;;;;;25.23;3.90;;;;;;;8.89;100.00;100406.91;5001868;28;20032;-85
2023/12/23 05:53:00;;;;;;;13.02;1.38;;;;;;;8.97;100.00;100424.41;5013561;28;20486;-84
2023/12/23 05:55:25;;;;;;;12.43;2.33;;;;;;;8.93;100.00;100432.94;5019684;28;20021;-85
2023/12/23 05:57:51;;;;;;;8.82;1.40;;;;;;;8.86;100.00;100426.25;5028677;28;20484;-86
2023/12/23 06:00:19;;;;;;;13.82;2.00;;;;;;;8.88;100.00;100422.38;5000194;28;20118;-84
2023/12/23 06:02:45;;;;;;;14.25;1.75;;;;;;;8.99;100.00;100440.66;5035110;28;20410;-83
2023/12/23 06:05:10;;;;;;;8.75;1.50;;;;;;;8.94;100.00;100438.28;5020524;28;20501;-84
2023/12/23 06:07:36;;;;;;;15.55;1.77;;;;;;;8.97;100.00;100427.13;5036289;28;20167;-83
2023/12/23 06:10:01;;;;;;;7.72;1.60;;;;;;;8.97;100.00;100440.78;5000209;28;20021;-84
2023/12/23 06:12:27;;;;;;;9.48;1.50;;;;;;;8.90;100.00;100431.31;5029432;28;20112;-83
2023/12/23 06:14:56;;;;;;;11.73;1.40;;;;;;;8.92;100.00;100445.75;5008144;28;20041;-83
2023/12/23 06:17:21;;;;;;;8.30;1.77;;;;;;;8.98;100.00;100438.91;5023825;28;20474;-83
2023/12/23 06:19:47;;;;;;;12.73;1.60;;;;;;;8.91;100.00;100441.25;5022912;28;20033;-82
2023/12/23 06:22:12;;;;;;;19.23;2.13;;;;;;;8.91;100.00;100441.25;5019913;28;20040;-83
2023/12/23 06:24:38;;;;;;;14.15;2.30;;;;;;;8.97;100.00;100421.66;5014465;28;20501;-82
2023/12/23 06:27:03;;;;;;;10.93;1.98;;;;;;;8.97;100.00;100448.97;5020935;28;20052;-83
2023/12/23 06:29:30;;;;;;;7.78;1.42;;;;;;;9.05;100.00;100423.81;5005676;28;20063;-82
2023/12/23 06:31:56;;;;;;;7.95;1.60;;;;;;;9.07;100.00;100427.25;5032597;28;20853;-82
2023/12/23 06:34:22;;;;;;;10.68;1.88;;;;;;;9.00;100.00;100415.97;5042474;28;20056;-83
2023/12/23 06:36:48;;;;;;;11.90;2.40;;;;;;;9.04;100.00;100426.66;5043006;28;20427;-83
2023/12/23 06:39:13;;;;;;;10.70;1.83;;;;;;;8.94;100.00;100427.38;5024098;28;20113;-83
2023/12/23 06:41:38;;;;;;;10.38;2.10;;;;;;;8.88;100.00;100422.38;5032417;28;20121;-83
2023/12/23 06:44:04;;;;;;;18.45;2.55;;;;;;;8.92;100.00;100431.19;5010050;28;20047;-83
2023/12/23 06:46:29;;;;;;;12.68;1.75;;;;;;;8.89;100.00;100434.19;5014655;28;20119;-83
2023/12/23 06:48:54;;;;;;;16.60;2.45;;;;;;;8.86;100.00;100448.94;5027888;28;20048;-83
2023/12/23 06:51:20;;;;;;;19.95;2.15;;;;;;;8.90;100.00;100442.25;5018967;28;20052;-83
2023/12/23 06:53:47;;;;;;;14.50;1.80;;;;;;;8.94;100.00;100421.06;5015172;28;20075;-83
2023/12/23 06:56:13;;;;;;;14.95;1.88;;;;;;;9.07;100.00;100426.38;5019356;28;20151;-83
2023/12/23 06:58:38;;;;;;;8.38;1.50;;;;;;;9.03;100.00;100436.69;5020028;28;20044;-83
2023/12/23 07:01:04;;;;;;;11.60;1.85;;;;;;;9.00;100.00;100426.88;5019750;28;20619;-83
2023/12/23 07:03:30;;;;;;;16.33;1.85;;;;;;;9.00;100.00;100431.47;5016286;28;20037;-83
2023/12/23 07:05:56;;;;;;;14.77;1.70;;;;;;;8.99;100.00;100399.69;5042718;28;20021;-83
2023/12/23 07:08:22;;;;;;;12.15;2.28;;;;;;;8.96;100.00;100413.59;5015037;28;20595;-85
2023/12/23 07:10:47;;;;;;;13.75;2.00;;;;;;;8.95;100.00;100414.56;5024870;28;20025;-83
2023/12/23 07:13:13;;;;;;;9.95;1.52;;;;;;;9.00;100.00;100418.69;5023369;28;20040;-84
2023/12/23 07:15:38;;;;;;;13.80;1.90;;;;;;;9.10;100.00;100415.22;5006434;28;20393;-84
2023/12/23 07:18:04;;;;;;;14.55;2.55;;;;;;;9.10;100.00;100409.75;5013126;28;20039;-85
2023/12/23 07:20:30;;;;;;;12.65;1.80;;;;;;;9.05;100.00;100414.72;5013013;28;20119;-84
2023/12/23 07:22:55;;;;;;;13.52;1.90;;;;;;;9.07;100.00;100412.72;5009897;28;20078;-84
2023/12/23 07:25:21;;;;;;;11.80;1.80;;;;;;;9.14;100.00;100422.19;5029827;28;20021;-85
2023/12/23 07:27:46;;;;;;;17.58;1.77;;;;;;;9.06;100.00;100425.50;5027453;28;20033;-85
2023/12/23 07:30:14;;;;;;;17.95;1.58;;;;;;;9.15;100.00;100426.63;5037772;28;20036;-85
2023/12/23 07:32:40;;;;;;;8.13;1.73;;;;;;;9.10;100.00;100418.84;5041841;28;20120;-86
2023/12/23 07:35:05;;;;;;;13.88;1.35;;;;;;;9.14;100.00;100423.03;5022528;28;20562;-85
2023/12/23 07:37:31;;;;;;;15.48;1.73;;;;;;;9.15;100.00;100435.72;5022885;28;20034;-86
2023/12/23 07:39:56;;;;;;;19.00;2.70;;;;;;;9.20;100.00;100438.94;5017833;28;20031;-86
2023/12/23 07:42:22;;;;;;;14.63;2.25;;;;;;;9.18;100.00;100432.75;5019345;28;20100;-85
2023/12/23 07:44:47;;;;;;;12.77;1.90;;;;;;;9.19;100.00;100450.00;5016177;28;20025;-87
2023/12/23 07:47:13;;;;;;;13.32;1.92;;;;;;;9.24;100.00;100455.09;5016583;28;20064;-84
2023/12/23 07:49:38;;;;;;;16.48;2.17;;;;;;;9.30;100.00;100439.06;5020669;28;20399;-86
2023/12/23 07:52:04;;;;;;;11.75;1.33;;;;;;;9.27;100.00;100446.66;5029928;28;20123;-86
2023/12/23 07:54:29;;;;;;;13.95;1.85;;;;;;;9.28;100.00;100438.34;5036770;28;20022;-86
2023/12/23 07:56:55;;;;;;;14.30;1.83;;;;;;;9.26;100.00;100423.06;5001322;28;20055;-86
2023/12/23 07:59:20;;;;;;;14.52;1.98;;;;;;;9.20;100.00;100428.03;4982299;28;20390;-85
2023/12/23 08:01:46;;;;;;;13.90;1.55;;;;;;;9.30;100.00;100419.09;5010770;28;20119;-86
2023/12/23 08:04:13;;;;;;;16.02;1.88;;;;;;;9.26;100.00;100432.09;5041321;28;20044;-86
2023/12/23 08:06:38;;;;;;;15.95;1.35;;;;;;;9.35;100.00;100438.72;5038900;28;20031;-87
2023/12/23 08:09:04;;;;;;;8.57;1.20;;;;;;;9.26;100.00;100425.78;5006232;28;20420;-85
2023/12/23 08:11:30;;;;;;;13.30;1.30;;;;;;;9.36;100.00;100430.38;5035468;28;20478;-85
2023/12/23 08:13:55;;;;;;;26.00;2.10;;;;;;;9.32;100.00;100438.94;5036973;28;20025;-86
2023/12/23 08:16:20;;;;;;;12.77;1.73;;;;;;;9.40;100.00;100436.47;4997158;28;20132;-84
2023/12/23 08:18:46;;;;;;;14.68;2.20;;;;;;;9.33;100.00;100449.75;5021721;28;20042;-84
2023/12/23 08:21:11;;;;;;;14.07;1.40;;;;;;;9.43;100.00;100441.69;4999269;28;20502;-84
2023/12/23 08:23:37;;;;;;;13.60;1.58;;;;;;;9.42;100.00;100442.66;5041284;28;20065;-85
2023/12/23 08:26:02;;;;;;;9.75;1.30;;;;;;;9.38;100.00;100450.25;5029152;28;20056;-86
2023/12/23 08:28:27;;;;;;;14.32;2.45;;;;;;;9.44;100.00;100456.22;5038729;28;20033;-86
2023/12/23 08:30:53;;;;;;;12.80;1.75;;;;;;;9.39;100.00;100451.13;5020578;28;20376;-87
2023/12/23 08:33:18;;;;;;;9.32;1.42;;;;;;;9.49;100.00;100449.38;5022847;28;20032;-85
2023/12/23 08:35:44;;;;;;;10.57;2.00;;;;;;;9.44;100.00;100448.88;5023860;28;20029;-85
2023/12/23 08:38:09;;;;;;;12.77;1.40;;;;;;;9.48;100.00;100455.84;5002904;28;20436;-86
2023/12/23 08:40:35;;;;;;;15.13;1.52;;;;;;;9.48;100.00;100450.38;5021969;28;20115;-86
2023/12/23 08:43:00;;;;;;;9.80;1.35;;;;;;;9.41;100.00;100454.59;5047283;28;20039;-88
2023/12/23 08:45:26;;;;;;;19.40;1.50;;;;;;;9.49;100.00;100460.28;5009457;28;20728;-87
2023/12/23 08:47:51;;;;;;;12.68;1.58;;;;;;;9.52;100.00;100464.66;5015211;28;20055;-87
2023/12/23 08:50:18;;;;;;;9.40;1.67;;;;;;;9.59;100.00;100463.16;5033271;28;20106;-86
2023/12/23 08:52:43;;;;;;;11.35;2.00;;;;;;;9.60;100.00;100472.25;5030960;28;20022;-87
2023/12/23 08:55:09;;;;;;;16.45;2.28;;;;;;;9.47;100.00;100462.28;5046570;28;20076;-88
2023/12/23 08:57:34;;;;;;;16.55;2.00;;;;;;;9.51;100.00;100465.63;5033890;28;20048;-88
2023/12/23 09:00:00;;;;;;;13.70;1.40;;;;;;;9.53;100.00;100472.72;5038686;28;20087;-88
2023/12/23 09:02:26;;;;;;;7.43;1.95;;;;;;;9.46;100.00;100457.84;5007126;28;20127;-87
2023/12/23 09:04:52;;;;;;;10.95;1.27;;;;;;;9.52;100.00;100467.38;5040300;28;20028;-87
2023/12/23 09:07:17;;;;;;;17.00;2.85;;;;;;;9.54;100.00;100473.59;4997733;28;20084;-87
2023/12/23 09:09:42;;;;;;;13.45;1.92;;;;;;;9.59;100.00;100489.63;5015807;28;20079;-87
2023/12/23 09:12:08;;;;;;;8.93;0.95;;;;;;;9.65;100.00;100490.00;5038212;28;20044;-88
2023/12/23 09:14:34;;;;;;;12.70;1.60;;;;;;;9.63;100.00;100496.59;5037604;28;20025;-87
2023/12/23 09:16:59;;;;;;;14.15;1.42;;;;;;;9.65;100.00;100502.81;5033142;28;20029;-87
2023/12/23 09:19:25;;;;;;;14.15;1.10;;;;;;;9.59;100.00;100501.41;5020529;28;20083;-87
2023/12/23 09:21:50;;;;;;;14.13;1.48;;;;;;;9.49;100.00;100509.47;5020722;28;20438;-87
2023/12/23 09:24:16;;;;;;;6.38;1.15;;;;;;;9.40;100.00;100493.84;5020384;28;20554;-87
2023/12/23 09:26:42;;;;;;;9.25;1.35;;;;;;;9.36;100.00;100506.91;5002133;28;20033;-88
2023/12/23 09:29:08;;;;;;;8.32;0.90;;;;;;;9.30;100.00;100526.50;5021618;28;20120;-87
2023/12/23 09:31:34;;;;;;;16.02;1.85;;;;;;;9.20;100.00;100528.22;5019932;28;20036;-87
2023/12/23 09:33:59;;;;;;;12.45;1.20;;;;;;;9.10;100.00;100510.78;5002638;28;20394;-87
2023/12/23 09:36:25;;;;;;;8.50;1.27;;;;;;;9.07;100.00;100508.31;5012164;28;20088;-88
2023/12/23 09:38:50;;;;;;;5.28;0.95;;;;;;;9.10;100.00;100508.06;5042779;28;20028;-88
2023/12/23 09:41:16;;;;;;;7.10;1.95;;;;;;;9.07;100.00;100516.50;5015730;28;20463;-87
2023/12/23 09:43:41;;;;;;;7.65;1.30;;;;;;;9.06;100.00;100514.78;5015297;28;20386;-87
2023/12/23 09:46:08;;;;;;;11.27;1.42;;;;;;;9.17;100.00;100512.94;5003593;28;20034;-87
2023/12/23 09:48:34;;;;;;;8.98;1.52;;;;;;;9.12;100.00;100519.75;5012006;28;20050;-88
2023/12/23 09:50:59;;;;;;;15.25;1.40;;;;;;;9.12;100.00;100525.22;5029358;28;20044;-87
2023/12/23 09:53:27;;;;;;;8.25;1.00;;;;;;;9.17;100.00;100531.19;5039941;28;20107;-85
2023/12/23 09:55:52;;;;;;;12.57;1.48;;;;;;;9.20;100.00;100526.34;5034661;28;20026;-87
2023/12/23 09:58:18;;;;;;;10.88;1.20;;;;;;;9.30;100.00;100540.16;5018055;28;20030;-85
2023/12/23 10:00:47;;;;;;;7.40;1.27;;;;;;;9.25;100.00;100536.94;5021309;28;20060;-85
2023/12/23 10:03:12;;;;;;;11.13;1.63;;;;;;;9.27;100.00;100537.66;5034070;28;20025;-85
2023/12/23 10:05:42;;;;;;;9.50;1.00;;;;;;;9.32;100.00;100540.91;5019122;28;20039;-85
2023/12/23 10:08:07;;;;;;;5.35;1.00;;;;;;;9.40;100.00;100547.63;5035900;28;20042;-85
2023/12/23 10:10:33;;;;;;;10.98;1.27;;;;;;;9.40;100.00;100539.44;5040509;28;20482;-85
2023/12/23 10:12:58;;;;;;;16.08;2.40;;;;;;;9.45;100.00;100540.81;5017990;28;20130;-85
2023/12/23 10:15:24;;;;;;;17.05;1.50;;;;;;;9.50;100.00;100546.75;5001874;28;20025;-84
2023/12/23 10:17:49;;;;;;;12.98;1.40;;;;;;;9.54;100.00;100547.38;5003538;28;20028;-85
2023/12/23 10:20:15;;;;;;;8.55;1.10;;;;;;;9.58;100.00;100548.91;5031880;28;20079;-84
2023/12/23 10:22:45;;;;;;;10.68;1.33;;;;;;;9.57;100.00;100545.31;4998732;28;20499;-85
2023/12/23 10:25:11;;;;;;;11.10;1.00;;;;;;;9.58;100.00;100532.50;5023659;28;20487;-84
2023/12/23 10:27:40;;;;;;;9.52;1.50;;;;;;;9.60;100.00;100538.69;5015298;28;20037;-85
2023/12/23 10:30:09;;;;;;;7.03;1.23;;;;;;;9.61;100.00;100548.66;5036817;28;20029;-86
2023/12/23 10:32:37;;;;;;;11.02;1.30;;;;;;;9.64;100.00;100532.00;5035758;28;20041;-87
2023/12/23 10:35:05;;;;;;;15.68;1.85;;;;;;;9.61;100.00;100532.25;5019972;28;20017;-85
2023/12/23 10:37:32;;;;;;;8.40;0.93;;;;;;;9.67;100.00;100520.78;5024987;28;20025;-86
2023/12/23 10:40:18;;;;;;;14.63;1.33;;;;;;;9.70;100.00;100545.16;5008637;28;20052;-86
2023/12/23 10:42:44;;;;;;;20.35;1.90;;;;;;;9.75;100.00;100542.06;5031649;28;20033;-86
2023/12/23 10:45:11;;;;;;;15.15;1.92;;;;;;;9.70;100.00;100536.97;5020711;28;20033;-86
2023/12/23 10:47:38;;;;;;;13.85;1.73;;;;;;;9.76;100.00;100535.59;5030985;28;20025;-85
2023/12/23 10:50:05;;;;;;;11.00;1.35;;;;;;;9.86;100.00;100528.38;5035390;28;20032;-85
2023/12/23 10:52:31;;;;;;;16.50;1.77;;;;;;;9.83;100.00;100536.84;5018631;28;20112;-86
2023/12/23 10:54:56;;;;;;;17.73;1.40;;;;;;;9.75;100.00;100521.03;5005075;28;20420;-85
2023/12/23 10:57:22;;;;;;;14.20;1.00;;;;;;;9.90;100.00;100531.75;5020723;28;20029;-84
2023/12/23 10:59:48;;;;;;;9.10;1.00;;;;;;;9.87;100.00;100526.50;5015161;28;20032;-85
2023/12/23 11:02:19;;;;;;;8.93;1.13;;;;;;;9.91;100.00;100514.34;5035420;28;20028;-86
2023/12/23 11:04:51;;;;;;;11.63;1.10;;;;;;;9.92;100.00;100522.44;5038976;28;20478;-85
2023/12/23 11:07:20;;;;;;;16.20;1.30;;;;;;;9.87;100.00;100526.50;5034678;28;20036;-85
2023/12/23 11:09:48;;;;;;;6.78;1.10;;;;;;;9.87;100.00;100526.50;5031857;28;20033;-85
2023/12/23 11:12:17;;;;;;;6.72;1.33;;;;;;;9.92;100.00;100532.50;5037685;28;20029;-85